sensor_id;sensor_type;location;lat;lon;timestamp;temperature;humidity
46319;DHT22;32042;50.916;2.926;2023-09-19T00:00:46;14.30;99.90
46319;DHT22;32042;50.916;2.926;2023-09-19T00:03:15;14.30;99.90
46319;DHT22;32042;50.916;2.926;2023-09-19T00:05:41;14.30;99.90
46319;DHT22;32042;50.916;2.926;2023-09-19T00:08:10;14.30;99.90
46319;DHT22;32042;50.916;2.926;2023-09-19T00:10:36;14.30;99.90
46319;DHT22;32042;50.916;2.926;2023-09-19T00:13:04;14.30;99.90
46319;DHT22;32042;50.916;2.926;2023-09-19T00:15:37;14.20;99.90
46319;DHT22;32042;50.916;2.926;2023-09-19T00:18:04;14.20;99.90
46319;DHT22;32042;50.916;2.926;2023-09-19T00:20:35;14.20;99.90
46319;DHT22;32042;50.916;2.926;2023-09-19T00:23:00;14.20;99.90
46319;DHT22;32042;50.916;2.926;2023-09-19T00:25:35;14.20;99.90
46319;DHT22;32042;50.916;2.926;2023-09-19T00:28:01;14.20;99.90
46319;DHT22;32042;50.916;2.926;2023-09-19T00:30:27;14.20;99.90
46319;DHT22;32042;50.916;2.926;2023-09-19T00:32:53;14.20;99.90
46319;DHT22;32042;50.916;2.926;2023-09-19T00:35:23;14.20;99.90
46319;DHT22;32042;50.916;2.926;2023-09-19T00:37:53;14.20;99.90
46319;DHT22;32042;50.916;2.926;2023-09-19T00:40:19;14.20;99.90
46319;DHT22;32042;50.916;2.926;2023-09-19T00:42:46;14.20;99.90
46319;DHT22;32042;50.916;2.926;2023-09-19T00:45:14;14.20;99.90
46319;DHT22;32042;50.916;2.926;2023-09-19T00:47:42;14.20;99.90
46319;DHT22;32042;50.916;2.926;2023-09-19T00:50:10;14.30;99.90
46319;DHT22;32042;50.916;2.926;2023-09-19T00:52:39;14.30;99.90
46319;DHT22;32042;50.916;2.926;2023-09-19T00:55:09;14.30;99.90
46319;DHT22;32042;50.916;2.926;2023-09-19T00:57:36;14.30;99.90
46319;DHT22;32042;50.916;2.926;2023-09-19T01:00:05;14.30;99.90
46319;DHT22;32042;50.916;2.926;2023-09-19T01:02:36;14.30;99.90
46319;DHT22;32042;50.916;2.926;2023-09-19T01:05:02;14.30;99.90
46319;DHT22;32042;50.916;2.926;2023-09-19T01:07:31;14.30;99.90
46319;DHT22;32042;50.916;2.926;2023-09-19T01:09:57;14.30;99.90
46319;DHT22;32042;50.916;2.926;2023-09-19T01:12:36;14.30;99.90
46319;DHT22;32042;50.916;2.926;2023-09-19T01:15:32;14.40;99.90
46319;DHT22;32042;50.916;2.926;2023-09-19T01:29:48;14.40;99.90
46319;DHT22;32042;50.916;2.926;2023-09-19T01:32:19;14.40;99.90
46319;DHT22;32042;50.916;2.926;2023-09-19T01:34:49;14.40;99.90
46319;DHT22;32042;50.916;2.926;2023-09-19T01:37:21;14.40;99.90
46319;DHT22;32042;50.916;2.926;2023-09-19T01:40:02;14.40;99.90
46319;DHT22;32042;50.916;2.926;2023-09-19T01:42:59;14.40;99.90
46319;DHT22;32042;50.916;2.926;2023-09-19T01:45:46;14.40;99.90
46319;DHT22;32042;50.916;2.926;2023-09-19T01:48:38;14.40;99.90
46319;DHT22;32042;50.916;2.926;2023-09-19T01:51:09;14.40;99.90
46319;DHT22;32042;50.916;2.926;2023-09-19T01:53:45;14.40;99.90
46319;DHT22;32042;50.916;2.926;2023-09-19T01:56:23;14.50;99.90
46319;DHT22;32042;50.916;2.926;2023-09-19T01:58:54;14.40;99.90
46319;DHT22;32042;50.916;2.926;2023-09-19T02:01:23;14.50;99.90
46319;DHT22;32042;50.916;2.926;2023-09-19T02:03:50;14.50;99.90
46319;DHT22;32042;50.916;2.926;2023-09-19T02:06:17;14.50;99.90
46319;DHT22;32042;50.916;2.926;2023-09-19T02:08:44;14.50;99.90
46319;DHT22;32042;50.916;2.926;2023-09-19T02:11:13;14.50;99.90
46319;DHT22;32042;50.916;2.926;2023-09-19T02:13:38;14.50;99.90
46319;DHT22;32042;50.916;2.926;2023-09-19T02:16:05;14.50;99.90
46319;DHT22;32042;50.916;2.926;2023-09-19T02:18:32;14.50;99.90
46319;DHT22;32042;50.916;2.926;2023-09-19T02:21:01;14.50;99.90
46319;DHT22;32042;50.916;2.926;2023-09-19T02:23:27;14.60;99.90
46319;DHT22;32042;50.916;2.926;2023-09-19T02:25:53;14.60;99.90
46319;DHT22;32042;50.916;2.926;2023-09-19T02:28:20;14.60;99.90
46319;DHT22;32042;50.916;2.926;2023-09-19T02:30:49;14.60;99.90
46319;DHT22;32042;50.916;2.926;2023-09-19T02:33:16;14.60;99.90
46319;DHT22;32042;50.916;2.926;2023-09-19T02:35:44;14.60;99.90
46319;DHT22;32042;50.916;2.926;2023-09-19T02:38:11;14.60;99.90
46319;DHT22;32042;50.916;2.926;2023-09-19T02:40:38;14.70;99.90
46319;DHT22;32042;50.916;2.926;2023-09-19T02:43:05;14.70;99.90
46319;DHT22;32042;50.916;2.926;2023-09-19T02:45:34;14.70;99.90
46319;DHT22;32042;50.916;2.926;2023-09-19T02:48:01;14.70;99.90
46319;DHT22;32042;50.916;2.926;2023-09-19T02:50:28;14.70;99.90
46319;DHT22;32042;50.916;2.926;2023-09-19T02:52:55;14.60;99.90
46319;DHT22;32042;50.916;2.926;2023-09-19T02:55:22;14.60;99.90
46319;DHT22;32042;50.916;2.926;2023-09-19T02:57:53;14.60;99.90
46319;DHT22;32042;50.916;2.926;2023-09-19T03:00:21;14.50;99.90
46319;DHT22;32042;50.916;2.926;2023-09-19T03:02:48;14.50;99.90
46319;DHT22;32042;50.916;2.926;2023-09-19T03:05:14;14.40;99.90
46319;DHT22;32042;50.916;2.926;2023-09-19T03:07:40;14.40;99.90
46319;DHT22;32042;50.916;2.926;2023-09-19T03:10:09;14.40;99.90
46319;DHT22;32042;50.916;2.926;2023-09-19T03:12:35;14.30;99.90
46319;DHT22;32042;50.916;2.926;2023-09-19T03:15:01;14.30;99.90
46319;DHT22;32042;50.916;2.926;2023-09-19T03:17:28;14.20;99.90
46319;DHT22;32042;50.916;2.926;2023-09-19T03:19:53;14.20;99.90
46319;DHT22;32042;50.916;2.926;2023-09-19T03:22:19;14.20;99.90
46319;DHT22;32042;50.916;2.926;2023-09-19T03:24:46;14.20;99.90
46319;DHT22;32042;50.916;2.926;2023-09-19T03:27:12;14.10;99.90
46319;DHT22;32042;50.916;2.926;2023-09-19T03:29:39;14.10;99.90
46319;DHT22;32042;50.916;2.926;2023-09-19T03:32:05;14.00;99.90
46319;DHT22;32042;50.916;2.926;2023-09-19T03:34:31;14.00;99.90
46319;DHT22;32042;50.916;2.926;2023-09-19T03:36:57;14.00;99.90
46319;DHT22;32042;50.916;2.926;2023-09-19T03:39:23;14.00;99.90
46319;DHT22;32042;50.916;2.926;2023-09-19T03:41:48;13.90;99.90
46319;DHT22;32042;50.916;2.926;2023-09-19T03:44:15;13.90;99.90
46319;DHT22;32042;50.916;2.926;2023-09-19T03:46:41;13.80;99.90
46319;DHT22;32042;50.916;2.926;2023-09-19T03:49:06;13.80;99.90
46319;DHT22;32042;50.916;2.926;2023-09-19T03:51:32;13.80;99.90
46319;DHT22;32042;50.916;2.926;2023-09-19T03:54:00;13.70;99.90
46319;DHT22;32042;50.916;2.926;2023-09-19T03:56:25;13.70;99.90
46319;DHT22;32042;50.916;2.926;2023-09-19T03:58:51;13.70;99.90
46319;DHT22;32042;50.916;2.926;2023-09-19T04:01:17;13.70;99.90
46319;DHT22;32042;50.916;2.926;2023-09-19T04:03:44;13.70;99.90
46319;DHT22;32042;50.916;2.926;2023-09-19T04:06:14;13.70;99.90
46319;DHT22;32042;50.916;2.926;2023-09-19T04:08:40;13.70;99.90
46319;DHT22;32042;50.916;2.926;2023-09-19T04:11:06;13.70;99.90
46319;DHT22;32042;50.916;2.926;2023-09-19T04:13:31;13.70;99.90
46319;DHT22;32042;50.916;2.926;2023-09-19T04:15:57;13.70;99.90
46319;DHT22;32042;50.916;2.926;2023-09-19T04:18:23;13.80;99.90
46319;DHT22;32042;50.916;2.926;2023-09-19T04:20:52;13.70;99.90
46319;DHT22;32042;50.916;2.926;2023-09-19T04:23:18;13.70;99.90
46319;DHT22;32042;50.916;2.926;2023-09-19T04:25:47;13.70;99.90
46319;DHT22;32042;50.916;2.926;2023-09-19T04:28:13;13.70;99.90
46319;DHT22;32042;50.916;2.926;2023-09-19T04:30:39;13.70;99.90
46319;DHT22;32042;50.916;2.926;2023-09-19T04:33:08;13.70;99.90
46319;DHT22;32042;50.916;2.926;2023-09-19T04:35:34;13.70;99.90
46319;DHT22;32042;50.916;2.926;2023-09-19T04:38:00;13.70;99.90
46319;DHT22;32042;50.916;2.926;2023-09-19T04:40:26;13.80;99.90
46319;DHT22;32042;50.916;2.926;2023-09-19T04:42:55;13.80;99.90
46319;DHT22;32042;50.916;2.926;2023-09-19T04:45:26;13.80;99.90
46319;DHT22;32042;50.916;2.926;2023-09-19T04:47:52;13.80;99.90
46319;DHT22;32042;50.916;2.926;2023-09-19T04:50:18;13.80;99.90
46319;DHT22;32042;50.916;2.926;2023-09-19T04:52:45;13.80;99.90
46319;DHT22;32042;50.916;2.926;2023-09-19T04:55:14;13.80;99.90
46319;DHT22;32042;50.916;2.926;2023-09-19T04:57:50;13.80;99.90
46319;DHT22;32042;50.916;2.926;2023-09-19T05:00:17;13.80;99.90
46319;DHT22;32042;50.916;2.926;2023-09-19T05:02:45;13.70;99.90
46319;DHT22;32042;50.916;2.926;2023-09-19T05:05:11;13.70;99.90
46319;DHT22;32042;50.916;2.926;2023-09-19T05:07:38;13.80;99.90
46319;DHT22;32042;50.916;2.926;2023-09-19T05:10:05;13.80;99.90
46319;DHT22;32042;50.916;2.926;2023-09-19T05:12:35;13.80;99.90
46319;DHT22;32042;50.916;2.926;2023-09-19T05:15:02;13.80;99.90
46319;DHT22;32042;50.916;2.926;2023-09-19T05:17:29;13.80;99.90
46319;DHT22;32042;50.916;2.926;2023-09-19T05:19:54;13.80;99.90
46319;DHT22;32042;50.916;2.926;2023-09-19T05:22:20;13.90;99.90
46319;DHT22;32042;50.916;2.926;2023-09-19T05:24:46;13.90;99.90
46319;DHT22;32042;50.916;2.926;2023-09-19T05:27:15;14.00;99.90
46319;DHT22;32042;50.916;2.926;2023-09-19T05:29:43;14.00;99.90
46319;DHT22;32042;50.916;2.926;2023-09-19T05:32:10;14.00;99.90
46319;DHT22;32042;50.916;2.926;2023-09-19T05:34:37;14.00;99.90
46319;DHT22;32042;50.916;2.926;2023-09-19T05:37:04;14.10;99.90
46319;DHT22;32042;50.916;2.926;2023-09-19T05:39:32;14.00;99.90
46319;DHT22;32042;50.916;2.926;2023-09-19T05:41:58;14.00;99.90
46319;DHT22;32042;50.916;2.926;2023-09-19T05:44:25;14.00;99.90
46319;DHT22;32042;50.916;2.926;2023-09-19T05:46:51;14.00;99.90
46319;DHT22;32042;50.916;2.926;2023-09-19T05:49:17;14.00;99.90
46319;DHT22;32042;50.916;2.926;2023-09-19T05:51:43;13.90;99.90
46319;DHT22;32042;50.916;2.926;2023-09-19T05:54:09;13.90;99.90
46319;DHT22;32042;50.916;2.926;2023-09-19T05:56:36;13.90;99.90
46319;DHT22;32042;50.916;2.926;2023-09-19T05:59:02;13.90;99.90
46319;DHT22;32042;50.916;2.926;2023-09-19T06:01:29;13.90;99.90
46319;DHT22;32042;50.916;2.926;2023-09-19T06:03:58;13.90;99.90
46319;DHT22;32042;50.916;2.926;2023-09-19T06:06:25;13.90;99.90
46319;DHT22;32042;50.916;2.926;2023-09-19T06:08:51;13.90;99.90
46319;DHT22;32042;50.916;2.926;2023-09-19T06:11:17;13.90;99.90
46319;DHT22;32042;50.916;2.926;2023-09-19T06:13:46;14.00;99.90
46319;DHT22;32042;50.916;2.926;2023-09-19T06:16:13;14.00;99.90
46319;DHT22;32042;50.916;2.926;2023-09-19T06:18:38;14.00;99.90
46319;DHT22;32042;50.916;2.926;2023-09-19T06:21:05;14.00;99.90
46319;DHT22;32042;50.916;2.926;2023-09-19T06:23:34;14.00;99.90
46319;DHT22;32042;50.916;2.926;2023-09-19T06:26:00;14.00;99.90
46319;DHT22;32042;50.916;2.926;2023-09-19T06:28:26;14.00;99.90
46319;DHT22;32042;50.916;2.926;2023-09-19T06:30:56;14.00;99.90
46319;DHT22;32042;50.916;2.926;2023-09-19T06:33:22;14.10;99.90
46319;DHT22;32042;50.916;2.926;2023-09-19T06:35:48;14.10;99.90
46319;DHT22;32042;50.916;2.926;2023-09-19T06:38:14;14.10;99.90
46319;DHT22;32042;50.916;2.926;2023-09-19T06:40:41;14.10;99.90
46319;DHT22;32042;50.916;2.926;2023-09-19T06:43:10;14.20;99.90
46319;DHT22;32042;50.916;2.926;2023-09-19T06:45:36;14.20;99.90
46319;DHT22;32042;50.916;2.926;2023-09-19T06:48:02;14.20;99.90
46319;DHT22;32042;50.916;2.926;2023-09-19T06:50:28;14.30;99.90
46319;DHT22;32042;50.916;2.926;2023-09-19T06:52:57;14.30;99.90
46319;DHT22;32042;50.916;2.926;2023-09-19T06:55:26;14.30;99.90
46319;DHT22;32042;50.916;2.926;2023-09-19T06:57:56;14.40;99.90
46319;DHT22;32042;50.916;2.926;2023-09-19T07:00:23;14.40;99.90
46319;DHT22;32042;50.916;2.926;2023-09-19T07:03:03;14.40;99.90
46319;DHT22;32042;50.916;2.926;2023-09-19T07:05:30;14.50;99.90
46319;DHT22;32042;50.916;2.926;2023-09-19T07:07:58;14.60;99.90
46319;DHT22;32042;50.916;2.926;2023-09-19T07:10:25;14.60;99.90
46319;DHT22;32042;50.916;2.926;2023-09-19T07:13:01;14.60;99.90
46319;DHT22;32042;50.916;2.926;2023-09-19T07:15:28;14.70;99.90
46319;DHT22;32042;50.916;2.926;2023-09-19T07:17:56;14.70;99.90
46319;DHT22;32042;50.916;2.926;2023-09-19T07:20:23;14.70;99.90
46319;DHT22;32042;50.916;2.926;2023-09-19T07:22:52;14.80;99.90
46319;DHT22;32042;50.916;2.926;2023-09-19T07:25:21;14.80;99.90
46319;DHT22;32042;50.916;2.926;2023-09-19T07:27:47;14.80;99.90
46319;DHT22;32042;50.916;2.926;2023-09-19T07:30:13;14.90;99.90
46319;DHT22;32042;50.916;2.926;2023-09-19T07:32:39;14.90;99.90
46319;DHT22;32042;50.916;2.926;2023-09-19T07:35:06;15.00;99.90
46319;DHT22;32042;50.916;2.926;2023-09-19T07:37:32;15.00;99.90
46319;DHT22;32042;50.916;2.926;2023-09-19T07:40:05;15.10;99.90
46319;DHT22;32042;50.916;2.926;2023-09-19T07:42:35;15.10;99.90
46319;DHT22;32042;50.916;2.926;2023-09-19T07:45:02;15.10;99.90
46319;DHT22;32042;50.916;2.926;2023-09-19T07:47:29;15.10;99.90
46319;DHT22;32042;50.916;2.926;2023-09-19T07:49:55;15.10;99.90
46319;DHT22;32042;50.916;2.926;2023-09-19T07:52:21;15.20;99.90
46319;DHT22;32042;50.916;2.926;2023-09-19T07:54:48;15.20;99.90
46319;DHT22;32042;50.916;2.926;2023-09-19T07:57:15;15.20;99.90
46319;DHT22;32042;50.916;2.926;2023-09-19T07:59:41;15.30;99.90
46319;DHT22;32042;50.916;2.926;2023-09-19T08:02:08;15.30;99.90
46319;DHT22;32042;50.916;2.926;2023-09-19T08:04:35;15.40;99.90
46319;DHT22;32042;50.916;2.926;2023-09-19T08:07:01;15.50;99.90
46319;DHT22;32042;50.916;2.926;2023-09-19T08:09:29;15.50;99.90
46319;DHT22;32042;50.916;2.926;2023-09-19T08:11:59;15.70;99.90
46319;DHT22;32042;50.916;2.926;2023-09-19T08:14:29;15.70;99.90
46319;DHT22;32042;50.916;2.926;2023-09-19T08:16:58;15.80;99.90
46319;DHT22;32042;50.916;2.926;2023-09-19T08:19:24;15.80;99.90
46319;DHT22;32042;50.916;2.926;2023-09-19T08:21:55;15.90;99.90
46319;DHT22;32042;50.916;2.926;2023-09-19T08:24:30;16.00;99.90
46319;DHT22;32042;50.916;2.926;2023-09-19T08:26:56;16.00;99.90
46319;DHT22;32042;50.916;2.926;2023-09-19T08:29:23;16.10;99.90
46319;DHT22;32042;50.916;2.926;2023-09-19T08:31:56;16.10;99.90
46319;DHT22;32042;50.916;2.926;2023-09-19T08:34:24;16.20;99.90
46319;DHT22;32042;50.916;2.926;2023-09-19T08:36:54;16.20;99.90
46319;DHT22;32042;50.916;2.926;2023-09-19T08:39:23;16.30;99.90
46319;DHT22;32042;50.916;2.926;2023-09-19T08:41:49;16.40;99.90
46319;DHT22;32042;50.916;2.926;2023-09-19T08:44:16;16.50;99.90
46319;DHT22;32042;50.916;2.926;2023-09-19T08:46:43;16.50;99.90
46319;DHT22;32042;50.916;2.926;2023-09-19T08:49:33;16.60;99.90
46319;DHT22;32042;50.916;2.926;2023-09-19T08:52:10;16.60;99.90
46319;DHT22;32042;50.916;2.926;2023-09-19T08:54:38;16.60;99.90
46319;DHT22;32042;50.916;2.926;2023-09-19T08:57:07;16.70;99.90
46319;DHT22;32042;50.916;2.926;2023-09-19T08:59:41;16.70;99.90
46319;DHT22;32042;50.916;2.926;2023-09-19T09:02:11;16.70;99.90
46319;DHT22;32042;50.916;2.926;2023-09-19T09:04:41;16.70;99.90
46319;DHT22;32042;50.916;2.926;2023-09-19T09:07:13;16.70;99.90
46319;DHT22;32042;50.916;2.926;2023-09-19T09:09:40;16.80;99.90
46319;DHT22;32042;50.916;2.926;2023-09-19T09:12:12;16.90;99.90
46319;DHT22;32042;50.916;2.926;2023-09-19T09:14:40;17.00;99.90
46319;DHT22;32042;50.916;2.926;2023-09-19T09:17:05;17.00;99.90
46319;DHT22;32042;50.916;2.926;2023-09-19T09:19:32;17.00;99.90
46319;DHT22;32042;50.916;2.926;2023-09-19T09:22:11;17.10;99.90
46319;DHT22;32042;50.916;2.926;2023-09-19T09:24:37;17.20;99.90
46319;DHT22;32042;50.916;2.926;2023-09-19T09:27:16;17.30;99.90
46319;DHT22;32042;50.916;2.926;2023-09-19T09:29:44;17.50;99.90
46319;DHT22;32042;50.916;2.926;2023-09-19T09:32:20;17.60;99.90
46319;DHT22;32042;50.916;2.926;2023-09-19T09:34:54;17.60;99.90
46319;DHT22;32042;50.916;2.926;2023-09-19T09:37:20;17.60;99.90
46319;DHT22;32042;50.916;2.926;2023-09-19T09:39:58;17.70;99.90
46319;DHT22;32042;50.916;2.926;2023-09-19T09:42:45;17.70;99.90
46319;DHT22;32042;50.916;2.926;2023-09-19T09:45:24;17.80;99.90
46319;DHT22;32042;50.916;2.926;2023-09-19T09:48:00;17.90;99.90
46319;DHT22;32042;50.916;2.926;2023-09-19T09:50:33;17.90;99.90
46319;DHT22;32042;50.916;2.926;2023-09-19T09:56:05;18.20;99.90
46319;DHT22;32042;50.916;2.926;2023-09-19T09:58:58;18.30;99.90
46319;DHT22;32042;50.916;2.926;2023-09-19T10:01:24;18.50;99.90
46319;DHT22;32042;50.916;2.926;2023-09-19T10:03:57;18.60;99.90
46319;DHT22;32042;50.916;2.926;2023-09-19T10:06:23;18.70;99.90
46319;DHT22;32042;50.916;2.926;2023-09-19T10:09:06;18.70;99.90
46319;DHT22;32042;50.916;2.926;2023-09-19T10:12:05;18.70;99.90
46319;DHT22;32042;50.916;2.926;2023-09-19T10:14:35;18.70;99.90
46319;DHT22;32042;50.916;2.926;2023-09-19T10:17:06;18.80;99.90
46319;DHT22;32042;50.916;2.926;2023-09-19T10:19:44;18.90;99.90
46319;DHT22;32042;50.916;2.926;2023-09-19T10:22:13;19.00;99.90
46319;DHT22;32042;50.916;2.926;2023-09-19T10:24:47;19.00;99.90
46319;DHT22;32042;50.916;2.926;2023-09-19T10:27:12;19.10;99.90
46319;DHT22;32042;50.916;2.926;2023-09-19T10:29:45;19.00;99.90
46319;DHT22;32042;50.916;2.926;2023-09-19T10:32:16;19.00;99.90
46319;DHT22;32042;50.916;2.926;2023-09-19T10:34:46;19.00;99.90
46319;DHT22;32042;50.916;2.926;2023-09-19T10:37:13;19.10;99.90
46319;DHT22;32042;50.916;2.926;2023-09-19T10:39:41;19.20;99.90
46319;DHT22;32042;50.916;2.926;2023-09-19T10:42:11;19.40;99.90
46319;DHT22;32042;50.916;2.926;2023-09-19T10:44:42;19.50;99.90
46319;DHT22;32042;50.916;2.926;2023-09-19T10:47:10;19.40;99.90
46319;DHT22;32042;50.916;2.926;2023-09-19T10:49:44;19.40;99.90
46319;DHT22;32042;50.916;2.926;2023-09-19T10:52:13;19.40;99.90
46319;DHT22;32042;50.916;2.926;2023-09-19T10:54:50;19.30;99.90
46319;DHT22;32042;50.916;2.926;2023-09-19T10:57:23;19.20;99.90
46319;DHT22;32042;50.916;2.926;2023-09-19T11:00:10;19.10;99.90
46319;DHT22;32042;50.916;2.926;2023-09-19T11:06:10;19.10;99.90
46319;DHT22;32042;50.916;2.926;2023-09-19T11:11:40;19.10;99.90
46319;DHT22;32042;50.916;2.926;2023-09-19T11:14:15;19.10;99.90
46319;DHT22;32042;50.916;2.926;2023-09-19T11:30:35;19.40;99.90
46319;DHT22;32042;50.916;2.926;2023-09-19T11:33:22;19.50;99.90
46319;DHT22;32042;50.916;2.926;2023-09-19T11:35:59;19.40;99.90
46319;DHT22;32042;50.916;2.926;2023-09-19T11:43:48;19.10;99.90
46319;DHT22;32042;50.916;2.926;2023-09-19T11:46:17;19.10;99.90
46319;DHT22;32042;50.916;2.926;2023-09-19T11:48:47;19.00;99.90
46319;DHT22;32042;50.916;2.926;2023-09-19T11:51:15;19.10;99.90
46319;DHT22;32042;50.916;2.926;2023-09-19T11:53:52;19.30;99.90
46319;DHT22;32042;50.916;2.926;2023-09-19T11:56:20;19.40;99.90
46319;DHT22;32042;50.916;2.926;2023-09-19T11:58:53;19.50;99.90
46319;DHT22;32042;50.916;2.926;2023-09-19T12:01:30;19.50;99.90
46319;DHT22;32042;50.916;2.926;2023-09-19T12:03:58;19.50;99.90
46319;DHT22;32042;50.916;2.926;2023-09-19T12:06:25;19.50;99.90
46319;DHT22;32042;50.916;2.926;2023-09-19T12:08:52;19.40;99.90
46319;DHT22;32042;50.916;2.926;2023-09-19T12:11:29;19.40;99.90
46319;DHT22;32042;50.916;2.926;2023-09-19T12:13:59;19.30;99.90
46319;DHT22;32042;50.916;2.926;2023-09-19T12:16:26;19.40;99.90
46319;DHT22;32042;50.916;2.926;2023-09-19T12:18:56;19.40;99.90
46319;DHT22;32042;50.916;2.926;2023-09-19T12:21:28;19.40;99.90
46319;DHT22;32042;50.916;2.926;2023-09-19T12:24:04;19.50;99.90
46319;DHT22;32042;50.916;2.926;2023-09-19T12:26:37;19.50;99.90
46319;DHT22;32042;50.916;2.926;2023-09-19T12:29:03;19.50;99.90
46319;DHT22;32042;50.916;2.926;2023-09-19T12:31:31;19.50;99.90
46319;DHT22;32042;50.916;2.926;2023-09-19T12:34:01;19.40;99.90
46319;DHT22;32042;50.916;2.926;2023-09-19T12:36:27;19.30;99.90
46319;DHT22;32042;50.916;2.926;2023-09-19T12:38:59;19.30;99.90
46319;DHT22;32042;50.916;2.926;2023-09-19T12:41:25;19.40;99.90
46319;DHT22;32042;50.916;2.926;2023-09-19T12:43:53;19.40;99.90
46319;DHT22;32042;50.916;2.926;2023-09-19T12:46:23;19.50;99.90
46319;DHT22;32042;50.916;2.926;2023-09-19T12:49:19;19.40;99.90
46319;DHT22;32042;50.916;2.926;2023-09-19T12:51:48;19.40;99.90
46319;DHT22;32042;50.916;2.926;2023-09-19T12:54:15;19.30;99.90
46319;DHT22;32042;50.916;2.926;2023-09-19T12:56:43;19.30;99.90
46319;DHT22;32042;50.916;2.926;2023-09-19T12:59:13;19.20;99.90
46319;DHT22;32042;50.916;2.926;2023-09-19T13:01:41;19.10;99.90
46319;DHT22;32042;50.916;2.926;2023-09-19T13:06:52;19.00;99.90
46319;DHT22;32042;50.916;2.926;2023-09-19T13:09:22;19.00;99.90
46319;DHT22;32042;50.916;2.926;2023-09-19T13:11:50;19.10;99.90
46319;DHT22;32042;50.916;2.926;2023-09-19T13:14:24;19.20;99.90
46319;DHT22;32042;50.916;2.926;2023-09-19T13:17:01;19.20;99.90
46319;DHT22;32042;50.916;2.926;2023-09-19T13:19:37;19.20;99.90
46319;DHT22;32042;50.916;2.926;2023-09-19T13:22:05;19.20;99.90
46319;DHT22;32042;50.916;2.926;2023-09-19T13:24:50;19.10;99.90
46319;DHT22;32042;50.916;2.926;2023-09-19T13:27:17;19.00;99.90
46319;DHT22;32042;50.916;2.926;2023-09-19T13:29:42;19.00;99.90
46319;DHT22;32042;50.916;2.926;2023-09-19T13:32:08;18.90;99.90
46319;DHT22;32042;50.916;2.926;2023-09-19T13:34:37;18.90;99.90
46319;DHT22;32042;50.916;2.926;2023-09-19T13:37:03;18.90;99.90
46319;DHT22;32042;50.916;2.926;2023-09-19T13:39:30;18.80;99.90
46319;DHT22;32042;50.916;2.926;2023-09-19T13:41:55;18.90;99.90
46319;DHT22;32042;50.916;2.926;2023-09-19T13:44:22;18.90;99.90
46319;DHT22;32042;50.916;2.926;2023-09-19T13:46:48;18.90;99.90
46319;DHT22;32042;50.916;2.926;2023-09-19T13:49:14;18.90;99.90
46319;DHT22;32042;50.916;2.926;2023-09-19T13:51:40;19.00;99.90
46319;DHT22;32042;50.916;2.926;2023-09-19T13:54:09;19.00;99.90
46319;DHT22;32042;50.916;2.926;2023-09-19T13:56:35;19.00;99.90
46319;DHT22;32042;50.916;2.926;2023-09-19T13:59:02;19.10;99.90
46319;DHT22;32042;50.916;2.926;2023-09-19T14:01:27;19.10;99.90
46319;DHT22;32042;50.916;2.926;2023-09-19T14:03:53;19.10;99.90
46319;DHT22;32042;50.916;2.926;2023-09-19T14:06:20;19.10;99.90
46319;DHT22;32042;50.916;2.926;2023-09-19T14:08:46;19.10;99.90
46319;DHT22;32042;50.916;2.926;2023-09-19T14:11:15;19.10;99.90
46319;DHT22;32042;50.916;2.926;2023-09-19T14:13:41;19.00;99.90
46319;DHT22;32042;50.916;2.926;2023-09-19T14:16:12;19.00;99.90
46319;DHT22;32042;50.916;2.926;2023-09-19T14:18:38;19.00;99.90
46319;DHT22;32042;50.916;2.926;2023-09-19T14:21:04;18.90;99.90
46319;DHT22;32042;50.916;2.926;2023-09-19T14:23:35;18.90;99.90
46319;DHT22;32042;50.916;2.926;2023-09-19T14:26:01;18.90;99.90
46319;DHT22;32042;50.916;2.926;2023-09-19T14:28:27;18.90;99.90
46319;DHT22;32042;50.916;2.926;2023-09-19T14:30:55;18.90;99.90
46319;DHT22;32042;50.916;2.926;2023-09-19T14:33:21;18.80;99.90
46319;DHT22;32042;50.916;2.926;2023-09-19T14:35:46;18.80;99.90
46319;DHT22;32042;50.916;2.926;2023-09-19T14:38:14;18.70;99.90
46319;DHT22;32042;50.916;2.926;2023-09-19T14:40:39;18.70;99.90
46319;DHT22;32042;50.916;2.926;2023-09-19T14:43:05;18.60;99.90
46319;DHT22;32042;50.916;2.926;2023-09-19T14:45:36;18.60;99.90
46319;DHT22;32042;50.916;2.926;2023-09-19T14:48:01;18.50;99.90
46319;DHT22;32042;50.916;2.926;2023-09-19T14:50:31;18.40;99.90
46319;DHT22;32042;50.916;2.926;2023-09-19T14:52:56;18.40;99.90
46319;DHT22;32042;50.916;2.926;2023-09-19T14:55:23;18.30;99.90
46319;DHT22;32042;50.916;2.926;2023-09-19T14:57:50;18.30;99.90
46319;DHT22;32042;50.916;2.926;2023-09-19T15:00:17;18.30;99.90
46319;DHT22;32042;50.916;2.926;2023-09-19T15:02:45;18.20;99.90
46319;DHT22;32042;50.916;2.926;2023-09-19T15:05:13;18.20;99.90
46319;DHT22;32042;50.916;2.926;2023-09-19T15:07:41;18.20;99.90
46319;DHT22;32042;50.916;2.926;2023-09-19T15:10:07;18.20;99.90
46319;DHT22;32042;50.916;2.926;2023-09-19T15:12:38;18.20;99.90
46319;DHT22;32042;50.916;2.926;2023-09-19T15:15:05;18.20;99.90
46319;DHT22;32042;50.916;2.926;2023-09-19T15:17:35;18.20;99.90
46319;DHT22;32042;50.916;2.926;2023-09-19T15:20:02;18.20;99.90
46319;DHT22;32042;50.916;2.926;2023-09-19T15:22:28;18.30;99.90
46319;DHT22;32042;50.916;2.926;2023-09-19T15:24:54;18.30;99.90
46319;DHT22;32042;50.916;2.926;2023-09-19T15:27:20;18.30;99.90
46319;DHT22;32042;50.916;2.926;2023-09-19T15:29:46;18.30;99.90
46319;DHT22;32042;50.916;2.926;2023-09-19T15:32:13;18.30;99.90
46319;DHT22;32042;50.916;2.926;2023-09-19T15:34:38;18.20;99.90
46319;DHT22;32042;50.916;2.926;2023-09-19T15:37:04;18.20;99.90
46319;DHT22;32042;50.916;2.926;2023-09-19T15:39:30;18.10;99.90
46319;DHT22;32042;50.916;2.926;2023-09-19T15:41:59;18.10;99.90
46319;DHT22;32042;50.916;2.926;2023-09-19T15:44:25;18.00;99.90
46319;DHT22;32042;50.916;2.926;2023-09-19T15:46:53;18.00;99.90
46319;DHT22;32042;50.916;2.926;2023-09-19T15:49:19;18.00;99.90
46319;DHT22;32042;50.916;2.926;2023-09-19T15:51:45;18.00;99.90
46319;DHT22;32042;50.916;2.926;2023-09-19T15:54:13;17.90;99.90
46319;DHT22;32042;50.916;2.926;2023-09-19T15:56:42;17.90;99.90
46319;DHT22;32042;50.916;2.926;2023-09-19T15:59:09;17.80;99.90
46319;DHT22;32042;50.916;2.926;2023-09-19T16:01:38;17.70;99.90
46319;DHT22;32042;50.916;2.926;2023-09-19T16:04:04;17.60;99.90
46319;DHT22;32042;50.916;2.926;2023-09-19T16:06:31;17.60;99.90
46319;DHT22;32042;50.916;2.926;2023-09-19T16:08:58;17.50;99.90
46319;DHT22;32042;50.916;2.926;2023-09-19T16:11:26;17.40;99.90
46319;DHT22;32042;50.916;2.926;2023-09-19T16:13:52;17.40;99.90
46319;DHT22;32042;50.916;2.926;2023-09-19T16:16:20;17.30;99.90
46319;DHT22;32042;50.916;2.926;2023-09-19T16:18:57;17.30;99.90
46319;DHT22;32042;50.916;2.926;2023-09-19T16:21:24;17.30;99.90
46319;DHT22;32042;50.916;2.926;2023-09-19T16:23:54;17.30;99.90